Time;durP1;ratioP1;P1;durP2;ratioP2;P2;SDS_P1;SDS_P2;PMS_P1;PMS_P2;Temp;Humidity;BMP_temperature;BMP_pressure;BME280_temperature;BME280_humidity;BME280_pressure;Samples;Min_cycle;Max_cycle;Signal;HPM_P1;HPM_P2
2022/06/10 00:00:05;;;;;;;;;;;;;;;;;;1044698;28;3863;-56
2022/06/10 00:00:41;;;;;;;;;;;;;;;;;;1044641;28;4119;-55
2022/06/10 00:01:11;;;;;;;;;;;;;;;;;;1046092;28;2530;-55
2022/06/10 00:01:42;;;;;;;;;;;;;;;;;;1043988;28;3979;-54
2022/06/10 00:02:12;;;;;;;;;;;;;;;;;;1046342;28;3713;-54
2022/06/10 00:02:45;;;;;;;;;;;;;;;;;;1044326;28;5334;-56
2022/06/10 00:03:16;;;;;;;;;;;;;;;;;;1045569;28;2916;-55
2022/06/10 00:03:47;;;;;;;;;;;;;;;;;;1045127;28;4056;-56
2022/06/10 00:04:17;;;;;;;;;;;;;;;;;;1045946;28;2932;-53
2022/06/10 00:04:47;;;;;;;;;;;;;;;;;;1045150;28;4162;-56
2022/06/10 00:05:19;;;;;;;;;;;;;;;;;;1046301;28;2860;-55
2022/06/10 00:05:50;;;;;;;;;;;;;;;;;;1043815;28;3809;-55
2022/06/10 00:06:21;;;;;;;;;;;;;;;;;;1046120;28;2526;-52
2022/06/10 00:06:52;;;;;;;;;;;;;;;;;;1044888;28;3940;-55
2022/06/10 00:07:23;;;;;;;;;;;;;;;;;;1045574;28;3920;-56
2022/06/10 00:07:54;;;;;;;;;;;;;;;;;;1045473;28;5366;-53
2022/06/10 00:08:26;;;;;;;;;;;;;;;;;;1046301;28;2775;-54
2022/06/10 00:08:57;;;;;;;;;;;;;;;;;;1044021;28;3881;-54
2022/06/10 00:09:27;;;;;;;;;;;;;;;;;;1047226;28;1993;-54
2022/06/10 00:09:57;;;;;;;;;;;;;;;;;;1045081;28;4073;-56
2022/06/10 00:10:27;;;;;;;;;;;;;;;;;;1046596;28;2950;-55
2022/06/10 00:10:58;;;;;;;;;;;;;;;;;;1044057;28;3872;-55
2022/06/10 00:11:29;;;;;;;;;;;;;;;;;;1047114;28;1607;-54
2022/06/10 00:11:59;;;;;;;;;;;;;;;;;;1044018;28;3870;-55
2022/06/10 00:12:29;;;;;;;;;;;;;;;;;;1046706;28;3243;-55
2022/06/10 00:13:00;;;;;;;;;;;;;;;;;;1046419;28;3998;-54
2022/06/10 00:13:32;;;;;;;;;;;;;;;;;;1046649;28;1691;-55
2022/06/10 00:14:02;;;;;;;;;;;;;;;;;;1046081;28;3749;-54
2022/06/10 00:14:32;;;;;;;;;;;;;;;;;;1047366;28;1612;-54
2022/06/10 00:15:02;;;;;;;;;;;;;;;;;;1041885;28;4070;-56
2022/06/10 00:15:33;;;;;;;;;;;;;;;;;;1040143;28;4128;-54
2022/06/10 00:16:04;;;;;;;;;;;;;;;;;;1041749;28;3649;-54
2022/06/10 00:16:34;;;;;;;;;;;;;;;;;;1041408;28;4925;-54
2022/06/10 00:17:05;;;;;;;;;;;;;;;;;;1046851;28;1922;-53
2022/06/10 00:17:35;;;;;;;;;;;;;;;;;;1043445;28;4099;-54
2022/06/10 00:18:07;;;;;;;;;;;;;;;;;;1045820;28;2791;-55
2022/06/10 00:18:37;;;;;;;;;;;;;;;;;;1044380;28;3955;-56
2022/06/10 00:19:07;;;;;;;;;;;;;;;;;;1045757;28;3272;-55
2022/06/10 00:19:37;;;;;;;;;;;;;;;;;;1043980;28;4077;-56
2022/06/10 00:20:09;;;;;;;;;;;;;;;;;;1046664;28;2272;-56
2022/06/10 00:20:40;;;;;;;;;;;;;;;;;;1044406;28;4103;-55
2022/06/10 00:21:11;;;;;;;;;;;;;;;;;;1041779;28;1968;-54
2022/06/10 00:21:42;;;;;;;;;;;;;;;;;;1040662;28;3952;-56
2022/06/10 00:22:12;;;;;;;;;;;;;;;;;;1041903;28;2799;-60
2022/06/10 00:22:42;;;;;;;;;;;;;;;;;;1032828;28;4109;-56
2022/06/10 00:23:13;;;;;;;;;;;;;;;;;;1035135;28;2994;-54
2022/06/10 00:23:43;;;;;;;;;;;;;;;;;;1036134;28;4244;-54
2022/06/10 00:24:13;;;;;;;;;;;;;;;;;;1037536;28;3343;-55
2022/06/10 00:24:44;;;;;;;;;;;;;;;;;;1045471;28;3886;-54
2022/06/10 00:25:14;;;;;;;;;;;;;;;;;;1045883;28;2398;-55
2022/06/10 00:25:45;;;;;;;;;;;;;;;;;;1043762;28;3942;-56
2022/06/10 00:26:15;;;;;;;;;;;;;;;;;;1046294;28;2010;-55
2022/06/10 00:26:46;;;;;;;;;;;;;;;;;;1045632;28;3989;-56
2022/06/10 00:27:16;;;;;;;;;;;;;;;;;;1042860;28;3724;-56
2022/06/10 00:27:47;;;;;;;;;;;;;;;;;;1044846;28;4054;-56
2022/06/10 00:28:17;;;;;;;;;;;;;;;;;;1045678;28;2640;-55
2022/06/10 00:28:48;;;;;;;;;;;;;;;;;;1045324;28;3989;-55
2022/06/10 00:29:18;;;;;;;;;;;;;;;;;;1045424;28;3204;-55
2022/06/10 00:29:55;;;;;;;;;;;;;;;;;;1046067;28;3835;-54
2022/06/10 00:30:28;;;;;;;;;;;;;;;;;;1045685;28;2203;-54
2022/06/10 00:30:59;;;;;;;;;;;;;;;;;;1044183;28;3938;-54
2022/06/10 00:31:35;;;;;;;;;;;;;;;;;;1046453;28;1790;-54
2022/06/10 00:32:06;;;;;;;;;;;;;;;;;;1042862;28;3781;-55
2022/06/10 00:32:43;;;;;;;;;;;;;;;;;;1044681;28;4186;-53
2022/06/10 00:33:13;;;;;;;;;;;;;;;;;;1046165;28;3646;-54
2022/06/10 00:33:50;;;;;;;;;;;;;;;;;;1045552;28;4499;-55
2022/06/10 00:34:21;;;;;;;;;;;;;;;;;;1041384;28;2523;-54
2022/06/10 00:34:51;;;;;;;;;;;;;;;;;;1040805;28;3912;-53
2022/06/10 00:35:21;;;;;;;;;;;;;;;;;;1037720;28;1503;-53
2022/06/10 00:35:52;;;;;;;;;;;;;;;;;;1036763;28;3925;-53
2022/06/10 00:36:23;;;;;;;;;;;;;;;;;;1041781;28;1893;-55
2022/06/10 00:36:53;;;;;;;;;;;;;;;;;;1040682;28;3879;-55
2022/06/10 00:37:36;;;;;;;;;;;;;;;;;;1036220;28;3159;-53
2022/06/10 00:38:07;;;;;;;;;;;;;;;;;;1036755;28;8356;-56
2022/06/10 00:38:38;;;;;;;;;;;;;;;;;;1037212;28;4039;-54
2022/06/10 00:39:08;;;;;;;;;;;;;;;;;;1037633;28;3162;-55
2022/06/10 00:39:38;;;;;;;;;;;;;;;;;;1037059;28;4024;-52
2022/06/10 00:40:12;;;;;;;;;;;;;;;;;;1038837;28;2283;-55
2022/06/10 00:40:46;;;;;;;;;;;;;;;;;;1037975;28;4111;-55
2022/06/10 00:41:16;;;;;;;;;;;;;;;;;;1037647;28;3927;-56
2022/06/10 00:41:46;;;;;;;;;;;;;;;;;;1035124;28;5086;-55
2022/06/10 00:42:17;;;;;;;;;;;;;;;;;;1037646;28;5780;-56
2022/06/10 00:42:47;;;;;;;;;;;;;;;;;;1035971;28;3776;-55
2022/06/10 00:43:19;;;;;;;;;;;;;;;;;;1038629;28;3034;-55
2022/06/10 00:43:49;;;;;;;;;;;;;;;;;;1037001;28;4085;-55
2022/06/10 00:44:38;;;;;;;;;;;;;;;;;;1037829;28;3989;-56
2022/06/10 00:45:28;;;;;;;;;;;;;;;;;;1036465;28;3878;-55
2022/06/10 00:45:58;;;;;;;;;;;;;;;;;;1037654;28;3847;-55
2022/06/10 00:46:28;;;;;;;;;;;;;;;;;;1037114;28;1990;-53
2022/06/10 00:46:58;;;;;;;;;;;;;;;;;;1036072;28;4073;-56
2022/06/10 00:47:35;;;;;;;;;;;;;;;;;;1036739;28;2867;-53
2022/06/10 00:48:07;;;;;;;;;;;;;;;;;;1034142;28;3810;-54
2022/06/10 00:48:46;;;;;;;;;;;;;;;;;;1036957;28;4048;-54
2022/06/10 00:49:17;;;;;;;;;;;;;;;;;;1037320;28;2889;-54
2022/06/10 00:49:51;;;;;;;;;;;;;;;;;;1036621;28;4030;-55
2022/06/10 00:50:28;;;;;;;;;;;;;;;;;;1037247;28;2760;-55
2022/06/10 00:51:03;;;;;;;;;;;;;;;;;;1036298;28;3980;-53
2022/06/10 00:51:36;;;;;;;;;;;;;;;;;;1038471;28;3934;-54
2022/06/10 00:52:12;;;;;;;;;;;;;;;;;;1033499;28;3719;-54
2022/06/10 00:52:45;;;;;;;;;;;;;;;;;;1032003;28;4079;-54
2022/06/10 00:53:16;;;;;;;;;;;;;;;;;;1032707;28;3979;-55
2022/06/10 00:53:48;;;;;;;;;;;;;;;;;;1033185;28;3893;-55
2022/06/10 00:54:25;;;;;;;;;;;;;;;;;;1038022;28;3265;-54
2022/06/10 00:54:56;;;;;;;;;;;;;;;;;;1036884;28;4095;-54
2022/06/10 00:55:30;;;;;;;;;;;;;;;;;;1037352;28;2013;-56
2022/06/10 00:56:04;;;;;;;;;;;;;;;;;;1036902;28;3931;-54
2022/06/10 00:56:36;;;;;;;;;;;;;;;;;;1037240;28;4090;-57
2022/06/10 00:57:11;;;;;;;;;;;;;;;;;;1036767;28;3833;-56
2022/06/10 00:57:43;;;;;;;;;;;;;;;;;;1032749;28;4149;-54
2022/06/10 00:58:18;;;;;;;;;;;;;;;;;;1032853;28;1638;-54
2022/06/10 00:59:01;;;;;;;;;;;;;;;;;;1033880;28;3907;-54
2022/06/10 00:59:34;;;;;;;;;;;;;;;;;;1038198;28;3013;-52
2022/06/10 01:00:07;;;;;;;;;;;;;;;;;;1037383;28;3829;-54
2022/06/10 01:00:38;;;;;;;;;;;;;;;;;;1038386;28;3872;-55
2022/06/10 01:01:09;;;;;;;;;;;;;;;;;;1037429;28;2899;-52
2022/06/10 01:01:40;;;;;;;;;;;;;;;;;;1038515;28;4059;-55
2022/06/10 01:02:12;;;;;;;;;;;;;;;;;;1037728;28;2659;-55
2022/06/10 01:02:42;;;;;;;;;;;;;;;;;;1037270;28;3984;-55
2022/06/10 01:03:13;;;;;;;;;;;;;;;;;;1035997;28;4344;-55
2022/06/10 01:03:43;;;;;;;;;;;;;;;;;;1037967;28;4178;-54
2022/06/10 01:04:14;;;;;;;;;;;;;;;;;;1037626;28;3882;-55
2022/06/10 01:04:44;;;;;;;;;;;;;;;;;;1036264;28;4066;-52
2022/06/10 01:05:16;;;;;;;;;;;;;;;;;;1039333;28;1775;-55
2022/06/10 01:05:46;;;;;;;;;;;;;;;;;;1036557;28;3926;-57
2022/06/10 01:06:17;;;;;;;;;;;;;;;;;;1038330;28;3339;-54
2022/06/10 01:06:47;;;;;;;;;;;;;;;;;;1035141;28;4043;-54
2022/06/10 01:07:23;;;;;;;;;;;;;;;;;;1037874;28;3811;-54
2022/06/10 01:08:03;;;;;;;;;;;;;;;;;;1036082;28;4401;-54
2022/06/10 01:08:33;;;;;;;;;;;;;;;;;;1038299;28;4038;-53
2022/06/10 01:09:04;;;;;;;;;;;;;;;;;;1036447;28;3835;-55
2022/06/10 01:09:34;;;;;;;;;;;;;;;;;;1037996;28;4149;-53
2022/06/10 01:10:06;;;;;;;;;;;;;;;;;;1037301;28;2603;-55
2022/06/10 01:10:43;;;;;;;;;;;;;;;;;;1038379;28;4068;-54
2022/06/10 01:11:13;;;;;;;;;;;;;;;;;;1035638;28;3913;-56
2022/06/10 01:11:52;;;;;;;;;;;;;;;;;;1035420;28;3820;-54
2022/06/10 01:12:23;;;;;;;;;;;;;;;;;;1036218;28;3754;-56
2022/06/10 01:13:02;;;;;;;;;;;;;;;;;;1036342;28;3911;-53
2022/06/10 01:13:59;;;;;;;;;;;;;;;;;;1042079;28;2720;-55
2022/06/10 01:14:35;;;;;;;;;;;;;;;;;;1037615;28;3651;-56
2022/06/10 01:15:12;;;;;;;;;;;;;;;;;;1037592;28;3839;-55
2022/06/10 01:15:52;;;;;;;;;;;;;;;;;;1036379;28;3933;-54
2022/06/10 01:16:23;;;;;;;;;;;;;;;;;;1037732;28;1681;-55
2022/06/10 01:16:58;;;;;;;;;;;;;;;;;;1037152;28;3958;-55
2022/06/10 01:17:29;;;;;;;;;;;;;;;;;;1037454;28;2948;-54
2022/06/10 01:17:59;;;;;;;;;;;;;;;;;;1037727;28;3828;-56
2022/06/10 01:18:29;;;;;;;;;;;;;;;;;;1037141;28;3707;-53
2022/06/10 01:19:18;;;;;;;;;;;;;;;;;;1036482;28;4155;-54
2022/06/10 01:20:12;;;;;;;;;;;;;;;;;;1035505;28;4054;-53
2022/06/10 01:21:08;;;;;;;;;;;;;;;;;;1037223;28;4044;-54
2022/06/10 01:21:42;;;;;;;;;;;;;;;;;;1020204;29;4116;-54
2022/06/10 01:22:12;;;;;;;;;;;;;;;;;;1026621;28;3284;-55
2022/06/10 01:23:01;;;;;;;;;;;;;;;;;;1041438;28;3964;-55
2022/06/10 01:23:51;;;;;;;;;;;;;;;;;;1040242;28;3754;-54
2022/06/10 01:24:34;;;;;;;;;;;;;;;;;;1029443;28;3838;-54
2022/06/10 01:25:23;;;;;;;;;;;;;;;;;;1036959;28;3742;-57
2022/06/10 01:25:56;;;;;;;;;;;;;;;;;;1037927;28;4019;-54
2022/06/10 01:27:48;;;;;;;;;;;;;;;;;;1038198;28;2026;-55
2022/06/10 01:27:48;;;;;;;;;;;;;;;;;;1034921;28;4016;-54
2022/06/10 01:28:31;;;;;;;;;;;;;;;;;;1037688;28;3798;-53
2022/06/10 01:29:20;;;;;;;;;;;;;;;;;;1037243;28;4009;-55
2022/06/10 01:30:08;;;;;;;;;;;;;;;;;;1035949;28;4170;-56
2022/06/10 01:30:42;;;;;;;;;;;;;;;;;;1035781;28;4091;-56
2022/06/10 01:31:17;;;;;;;;;;;;;;;;;;1038633;28;1690;-54
2022/06/10 01:31:50;;;;;;;;;;;;;;;;;;1036603;28;4803;-54
2022/06/10 01:32:31;;;;;;;;;;;;;;;;;;1036244;28;4179;-55
2022/06/10 01:33:18;;;;;;;;;;;;;;;;;;1035018;28;3972;-54
2022/06/10 01:34:04;;;;;;;;;;;;;;;;;;1036881;28;3933;-56
2022/06/10 01:34:40;;;;;;;;;;;;;;;;;;1036358;28;4017;-56
2022/06/10 01:35:10;;;;;;;;;;;;;;;;;;1038744;28;2968;-54
2022/06/10 01:36:00;;;;;;;;;;;;;;;;;;1035822;28;4064;-56
2022/06/10 01:36:33;;;;;;;;;;;;;;;;;;1038635;28;1674;-53
2022/06/10 01:37:18;;;;;;;;;;;;;;;;;;1039797;28;3792;-55
2022/06/10 01:38:03;;;;;;;;;;;;;;;;;;1044067;28;3857;-54
2022/06/10 01:38:42;;;;;;;;;;;;;;;;;;1045038;28;3964;-55
2022/06/10 01:39:21;;;;;;;;;;;;;;;;;;1041530;28;3071;-52
2022/06/10 01:39:59;;;;;;;;;;;;;;;;;;1040472;28;4003;-54
2022/06/10 01:40:37;;;;;;;;;;;;;;;;;;1041483;28;1598;-55
2022/06/10 01:41:07;;;;;;;;;;;;;;;;;;1042173;28;3881;-54
2022/06/10 01:41:56;;;;;;;;;;;;;;;;;;1045292;28;4264;-54
2022/06/10 01:42:34;;;;;;;;;;;;;;;;;;1045217;28;3802;-53
2022/06/10 01:43:10;;;;;;;;;;;;;;;;;;1045767;28;4883;-54
2022/06/10 01:43:59;;;;;;;;;;;;;;;;;;1045198;28;4035;-54
2022/06/10 01:44:29;;;;;;;;;;;;;;;;;;1041451;28;2804;-55
2022/06/10 01:45:07;;;;;;;;;;;;;;;;;;1041643;28;4095;-55
2022/06/10 01:45:47;;;;;;;;;;;;;;;;;;1041116;28;4083;-55
2022/06/10 01:46:20;;;;;;;;;;;;;;;;;;1044202;28;1902;-55
2022/06/10 01:47:09;;;;;;;;;;;;;;;;;;1044279;28;4113;-55
2022/06/10 01:47:39;;;;;;;;;;;;;;;;;;1044583;28;3874;-56
2022/06/10 01:48:15;;;;;;;;;;;;;;;;;;1041593;28;2960;-55
2022/06/10 01:48:54;;;;;;;;;;;;;;;;;;1041124;28;4055;-55
2022/06/10 01:49:29;;;;;;;;;;;;;;;;;;1040925;28;4120;-54
2022/06/10 01:50:01;;;;;;;;;;;;;;;;;;1044401;28;4083;-54
2022/06/10 01:50:40;;;;;;;;;;;;;;;;;;1044502;28;4053;-55
2022/06/10 01:51:15;;;;;;;;;;;;;;;;;;1044549;28;3833;-55
2022/06/10 01:52:00;;;;;;;;;;;;;;;;;;1043123;28;4380;-55
2022/06/10 01:52:42;;;;;;;;;;;;;;;;;;1045016;28;3907;-55
2022/06/10 01:53:30;;;;;;;;;;;;;;;;;;1044762;28;3685;-56
2022/06/10 01:54:06;;;;;;;;;;;;;;;;;;1044819;28;3875;-54
2022/06/10 01:54:48;;;;;;;;;;;;;;;;;;1044449;28;3912;-55
2022/06/10 01:55:21;;;;;;;;;;;;;;;;;;1041441;28;2588;-54
2022/06/10 01:56:03;;;;;;;;;;;;;;;;;;1040307;28;3927;-54
2022/06/10 01:56:47;;;;;;;;;;;;;;;;;;1040929;28;4257;-54
2022/06/10 01:57:21;;;;;;;;;;;;;;;;;;1044000;28;4618;-55
2022/06/10 01:58:01;;;;;;;;;;;;;;;;;;1043594;28;4392;-56
2022/06/10 01:58:43;;;;;;;;;;;;;;;;;;1045590;28;1361;-54
2022/06/10 01:59:20;;;;;;;;;;;;;;;;;;1046189;28;3885;-54
2022/06/10 02:00:03;;;;;;;;;;;;;;;;;;1044571;28;4387;-55
2022/06/10 02:00:36;;;;;;;;;;;;;;;;;;1043704;28;4131;-55
2022/06/10 02:01:14;;;;;;;;;;;;;;;;;;1045860;28;1549;-55
2022/06/10 02:01:48;;;;;;;;;;;;;;;;;;1044754;28;3898;-55
2022/06/10 02:02:22;;;;;;;;;;;;;;;;;;1044724;28;3997;-56
2022/06/10 02:02:52;;;;;;;;;;;;;;;;;;1045316;28;4066;-55
2022/06/10 02:03:31;;;;;;;;;;;;;;;;;;1044371;28;2665;-52
2022/06/10 02:04:13;;;;;;;;;;;;;;;;;;1044426;28;4178;-53
2022/06/10 02:04:47;;;;;;;;;;;;;;;;;;1039835;28;4099;-56
2022/06/10 02:05:24;;;;;;;;;;;;;;;;;;1041996;28;2251;-54
2022/06/10 02:05:58;;;;;;;;;;;;;;;;;;1037932;28;4738;-55
2022/06/10 02:06:38;;;;;;;;;;;;;;;;;;1037777;28;3045;-56
2022/06/10 02:07:11;;;;;;;;;;;;;;;;;;1041082;28;3916;-55
2022/06/10 02:07:44;;;;;;;;;;;;;;;;;;1044888;28;4062;-56
2022/06/10 02:08:18;;;;;;;;;;;;;;;;;;1045353;28;3885;-55
2022/06/10 02:08:49;;;;;;;;;;;;;;;;;;1045510;28;5359;-56
2022/06/10 02:09:24;;;;;;;;;;;;;;;;;;1044687;28;2953;-56
2022/06/10 02:09:59;;;;;;;;;;;;;;;;;;1044637;28;4239;-54
2022/06/10 02:10:33;;;;;;;;;;;;;;;;;;1045612;28;2135;-55
2022/06/10 02:11:14;;;;;;;;;;;;;;;;;;1044062;28;3944;-52
2022/06/10 02:11:47;;;;;;;;;;;;;;;;;;1045641;28;4166;-54
2022/06/10 02:12:27;;;;;;;;;;;;;;;;;;1044793;28;2043;-54
2022/06/10 02:13:00;;;;;;;;;;;;;;;;;;1045040;28;4066;-56
2022/06/10 02:13:34;;;;;;;;;;;;;;;;;;1044632;28;3546;-54
2022/06/10 02:14:08;;;;;;;;;;;;;;;;;;1045711;28;3932;-54
2022/06/10 02:14:40;;;;;;;;;;;;;;;;;;1043848;28;4075;-55
2022/06/10 02:15:16;;;;;;;;;;;;;;;;;;1045418;28;3699;-56
2022/06/10 02:15:54;;;;;;;;;;;;;;;;;;1044498;28;4064;-53
2022/06/10 02:16:26;;;;;;;;;;;;;;;;;;1046576;28;2803;-54
2022/06/10 02:16:57;;;;;;;;;;;;;;;;;;1045150;28;3882;-56
2022/06/10 02:17:31;;;;;;;;;;;;;;;;;;1046364;28;1441;-54
2022/06/10 02:18:06;;;;;;;;;;;;;;;;;;1045346;28;4036;-52
2022/06/10 02:18:49;;;;;;;;;;;;;;;;;;1044990;28;3884;-54
2022/06/10 02:19:22;;;;;;;;;;;;;;;;;;1045471;28;1368;-54
2022/06/10 02:19:57;;;;;;;;;;;;;;;;;;1046117;28;3964;-55
2022/06/10 02:20:30;;;;;;;;;;;;;;;;;;1045227;28;3581;-54
2022/06/10 02:21:02;;;;;;;;;;;;;;;;;;1044798;28;3921;-54
2022/06/10 02:21:32;;;;;;;;;;;;;;;;;;1044185;28;3459;-54
2022/06/10 02:22:34;;;;;;;;;;;;;;;;;;1044670;28;3786;-55
2022/06/10 02:23:07;;;;;;;;;;;;;;;;;;1028846;28;4391;-54
2022/06/10 02:23:41;;;;;;;;;;;;;;;;;;1041627;28;4090;-55
2022/06/10 02:24:15;;;;;;;;;;;;;;;;;;1038999;28;3455;-52
2022/06/10 02:24:49;;;;;;;;;;;;;;;;;;1043236;28;4238;-55
2022/06/10 02:25:23;;;;;;;;;;;;;;;;;;1046040;28;1714;-54
2022/06/10 02:25:55;;;;;;;;;;;;;;;;;;1043671;28;4385;-54
2022/06/10 02:26:27;;;;;;;;;;;;;;;;;;1045212;28;3422;-54
2022/06/10 02:27:01;;;;;;;;;;;;;;;;;;1045038;28;4056;-55
2022/06/10 02:27:34;;;;;;;;;;;;;;;;;;1045084;28;3113;-55
2022/06/10 02:28:08;;;;;;;;;;;;;;;;;;1044025;28;3988;-54
2022/06/10 02:28:43;;;;;;;;;;;;;;;;;;1045281;28;4068;-54
2022/06/10 02:29:22;;;;;;;;;;;;;;;;;;1046131;28;1784;-54
2022/06/10 02:30:00;;;;;;;;;;;;;;;;;;1044076;28;4089;-54
2022/06/10 02:30:34;;;;;;;;;;;;;;;;;;1045294;28;4024;-54
2022/06/10 02:31:16;;;;;;;;;;;;;;;;;;1045195;28;4164;-56
2022/06/10 02:31:48;;;;;;;;;;;;;;;;;;1044034;28;4069;-55
2022/06/10 02:32:19;;;;;;;;;;;;;;;;;;1044742;28;3680;-55
2022/06/10 02:32:49;;;;;;;;;;;;;;;;;;1043391;28;4070;-54
2022/06/10 02:33:20;;;;;;;;;;;;;;;;;;1045989;28;1860;-55
2022/06/10 02:33:50;;;;;;;;;;;;;;;;;;1045151;28;4053;-54
2022/06/10 02:34:20;;;;;;;;;;;;;;;;;;1046061;28;1940;-54
2022/06/10 02:34:51;;;;;;;;;;;;;;;;;;1044829;28;3954;-54
2022/06/10 02:35:22;;;;;;;;;;;;;;;;;;1045452;28;2416;-56
2022/06/10 02:35:58;;;;;;;;;;;;;;;;;;1044541;28;4047;-55
2022/06/10 02:36:37;;;;;;;;;;;;;;;;;;1045172;28;3732;-55
2022/06/10 02:37:26;;;;;;;;;;;;;;;;;;1043556;28;3818;-55
2022/06/10 02:38:12;;;;;;;;;;;;;;;;;;1044889;28;3897;-54
2022/06/10 02:38:58;;;;;;;;;;;;;;;;;;1045596;28;4127;-55
2022/06/10 02:39:38;;;;;;;;;;;;;;;;;;1044867;28;3870;-54
2022/06/10 02:40:19;;;;;;;;;;;;;;;;;;1045272;28;3714;-53
2022/06/10 02:40:56;;;;;;;;;;;;;;;;;;1043231;28;3963;-55
2022/06/10 02:41:31;;;;;;;;;;;;;;;;;;1045181;28;3338;-55
2022/06/10 02:42:13;;;;;;;;;;;;;;;;;;1043621;28;3919;-55
2022/06/10 02:42:49;;;;;;;;;;;;;;;;;;1040757;28;4030;-56
2022/06/10 02:43:19;;;;;;;;;;;;;;;;;;1040299;28;4036;-57
2022/06/10 02:43:55;;;;;;;;;;;;;;;;;;1040408;28;4301;-55
2022/06/10 02:44:32;;;;;;;;;;;;;;;;;;1041182;28;1687;-51
2022/06/10 02:45:13;;;;;;;;;;;;;;;;;;1041608;28;3856;-55
2022/06/10 02:45:46;;;;;;;;;;;;;;;;;;1046182;28;3894;-54
2022/06/10 02:46:20;;;;;;;;;;;;;;;;;;1046249;28;2110;-52
2022/06/10 02:46:57;;;;;;;;;;;;;;;;;;1043851;28;4059;-53
2022/06/10 02:47:34;;;;;;;;;;;;;;;;;;1046242;28;1996;-56
2022/06/10 02:48:23;;;;;;;;;;;;;;;;;;1045783;28;4049;-53
2022/06/10 02:49:17;;;;;;;;;;;;;;;;;;1045119;28;4043;-55
2022/06/10 02:49:48;;;;;;;;;;;;;;;;;;1045188;28;3858;-55
2022/06/10 02:50:18;;;;;;;;;;;;;;;;;;1046378;28;1979;-54
2022/06/10 02:50:48;;;;;;;;;;;;;;;;;;1044882;28;3872;-56
2022/06/10 02:51:19;;;;;;;;;;;;;;;;;;1045277;28;2721;-56
2022/06/10 02:51:49;;;;;;;;;;;;;;;;;;1044608;28;3895;-56
2022/06/10 02:52:21;;;;;;;;;;;;;;;;;;1046118;28;2746;-54
2022/06/10 02:52:52;;;;;;;;;;;;;;;;;;1044246;28;4067;-54
2022/06/10 02:53:22;;;;;;;;;;;;;;;;;;1044647;28;4281;-54
2022/06/10 02:53:52;;;;;;;;;;;;;;;;;;1043519;28;4042;-54
2022/06/10 02:54:28;;;;;;;;;;;;;;;;;;1045888;28;3961;-55
2022/06/10 02:54:58;;;;;;;;;;;;;;;;;;1044985;28;3971;-55
2022/06/10 02:55:28;;;;;;;;;;;;;;;;;;1045590;28;2616;-56
2022/06/10 02:55:59;;;;;;;;;;;;;;;;;;1044502;28;4082;-56
2022/06/10 02:56:30;;;;;;;;;;;;;;;;;;1045661;28;2478;-54
2022/06/10 02:57:09;;;;;;;;;;;;;;;;;;1044604;28;3987;-54
2022/06/10 03:01:20;;;;;;;;;;;;;;;;;;1036374;28;4037;-53
2022/06/10 03:02:08;;;;;;;;;;;;;;;;;;1037721;28;4108;-54
2022/06/10 03:02:53;;;;;;;;;;;;;;;;;;1044008;28;3808;-54
2022/06/10 03:03:38;;;;;;;;;;;;;;;;;;1043169;28;2891;-55
2022/06/10 03:04:11;;;;;;;;;;;;;;;;;;1044271;28;3822;-56
2022/06/10 03:05:11;;;;;;;;;;;;;;;;;;1046098;28;4203;-55
2022/06/10 03:05:43;;;;;;;;;;;;;;;;;;1040267;28;4119;-55
2022/06/10 03:06:20;;;;;;;;;;;;;;;;;;1040588;28;1635;-54
2022/06/10 03:07:09;;;;;;;;;;;;;;;;;;1041034;28;3977;-54
2022/06/10 03:07:57;;;;;;;;;;;;;;;;;;1039060;28;3896;-55
2022/06/10 03:08:30;;;;;;;;;;;;;;;;;;1041798;28;2715;-53
2022/06/10 03:09:04;;;;;;;;;;;;;;;;;;1044892;28;3885;-54
2022/06/10 03:09:56;;;;;;;;;;;;;;;;;;1043846;28;4034;-56
2022/06/10 03:10:51;;;;;;;;;;;;;;;;;;1040287;28;3890;-56
2022/06/10 03:11:30;;;;;;;;;;;;;;;;;;1039071;28;3985;-53
2022/06/10 03:12:15;;;;;;;;;;;;;;;;;;1041151;28;4242;-54
2022/06/10 03:12:49;;;;;;;;;;;;;;;;;;1044741;28;4049;-54
2022/06/10 03:13:38;;;;;;;;;;;;;;;;;;1045136;28;3307;-56
2022/06/10 03:14:17;;;;;;;;;;;;;;;;;;1045011;28;3692;-55
2022/06/10 03:14:50;;;;;;;;;;;;;;;;;;1044932;28;3815;-54
2022/06/10 03:15:39;;;;;;;;;;;;;;;;;;1044831;28;2797;-53
2022/06/10 03:16:09;;;;;;;;;;;;;;;;;;1045387;28;3672;-54
2022/06/10 03:17:03;;;;;;;;;;;;;;;;;;1044402;28;4271;-54
2022/06/10 03:17:42;;;;;;;;;;;;;;;;;;1045422;28;1951;-54
2022/06/10 03:18:22;;;;;;;;;;;;;;;;;;1039102;28;5064;-53
2022/06/10 03:19:07;;;;;;;;;;;;;;;;;;1040595;28;3953;-55
2022/06/10 03:19:44;;;;;;;;;;;;;;;;;;1039728;28;3862;-54
2022/06/10 03:20:14;;;;;;;;;;;;;;;;;;1044186;28;3766;-54
2022/06/10 03:21:02;;;;;;;;;;;;;;;;;;1044733;28;4083;-55
2022/06/10 03:21:52;;;;;;;;;;;;;;;;;;1045080;28;2562;-55
2022/06/10 03:22:35;;;;;;;;;;;;;;;;;;1044736;28;3861;-54
2022/06/10 03:23:11;;;;;;;;;;;;;;;;;;1044647;28;5156;-56
2022/06/10 03:23:50;;;;;;;;;;;;;;;;;;1044167;28;3897;-54
2022/06/10 03:24:36;;;;;;;;;;;;;;;;;;1040105;28;4824;-55
2022/06/10 03:25:17;;;;;;;;;;;;;;;;;;1043170;28;3936;-54
2022/06/10 03:25:53;;;;;;;;;;;;;;;;;;1042314;28;4215;-56
2022/06/10 03:26:34;;;;;;;;;;;;;;;;;;1042391;28;2661;-55
2022/06/10 03:27:11;;;;;;;;;;;;;;;;;;1043893;28;3942;-54
2022/06/10 03:27:55;;;;;;;;;;;;;;;;;;1045104;28;4172;-54
2022/06/10 03:28:37;;;;;;;;;;;;;;;;;;1045519;28;2775;-55
2022/06/10 03:29:07;;;;;;;;;;;;;;;;;;1044389;28;6674;-55
2022/06/10 03:29:37;;;;;;;;;;;;;;;;;;1043890;28;4632;-56
2022/06/10 03:30:10;;;;;;;;;;;;;;;;;;1044663;28;2737;-55
2022/06/10 03:30:44;;;;;;;;;;;;;;;;;;1042352;28;4018;-55
2022/06/10 03:31:34;;;;;;;;;;;;;;;;;;1046064;28;4016;-52
2022/06/10 03:32:15;;;;;;;;;;;;;;;;;;1046284;28;3963;-54
2022/06/10 03:32:48;;;;;;;;;;;;;;;;;;1045151;28;4101;-55
2022/06/10 03:33:25;;;;;;;;;;;;;;;;;;1046543;28;1996;-54
2022/06/10 03:33:59;;;;;;;;;;;;;;;;;;1045129;28;3852;-56
2022/06/10 03:34:33;;;;;;;;;;;;;;;;;;1045827;28;3545;-52
2022/06/10 03:35:08;;;;;;;;;;;;;;;;;;1046308;28;3816;-53
2022/06/10 03:35:47;;;;;;;;;;;;;;;;;;1045021;28;3901;-55
2022/06/10 03:36:21;;;;;;;;;;;;;;;;;;1047222;28;2723;-55
2022/06/10 03:36:52;;;;;;;;;;;;;;;;;;1041348;28;4104;-55
2022/06/10 03:37:29;;;;;;;;;;;;;;;;;;1042367;28;1715;-54
2022/06/10 03:38:07;;;;;;;;;;;;;;;;;;1040948;28;3875;-53
2022/06/10 03:38:45;;;;;;;;;;;;;;;;;;1040744;28;4140;-55
2022/06/10 03:39:15;;;;;;;;;;;;;;;;;;1041564;28;1830;-52
2022/06/10 03:39:55;;;;;;;;;;;;;;;;;;1040556;28;4071;-55
2022/06/10 03:40:27;;;;;;;;;;;;;;;;;;1042759;28;1669;-55
2022/06/10 03:40:58;;;;;;;;;;;;;;;;;;1040810;28;3999;-54
2022/06/10 03:41:33;;;;;;;;;;;;;;;;;;1043340;28;1139;-55
2022/06/10 03:42:17;;;;;;;;;;;;;;;;;;1040163;28;4141;-53
2022/06/10 03:42:49;;;;;;;;;;;;;;;;;;1039805;28;3966;-55
2022/06/10 03:43:19;;;;;;;;;;;;;;;;;;1042765;28;1935;-55
2022/06/10 03:43:51;;;;;;;;;;;;;;;;;;1041892;28;4127;-54
2022/06/10 03:44:21;;;;;;;;;;;;;;;;;;1042338;28;1964;-54
2022/06/10 03:44:53;;;;;;;;;;;;;;;;;;1041540;28;4102;-52
2022/06/10 03:45:29;;;;;;;;;;;;;;;;;;1042106;28;3940;-54
2022/06/10 03:46:01;;;;;;;;;;;;;;;;;;1041259;28;3889;-54
2022/06/10 03:46:32;;;;;;;;;;;;;;;;;;1042394;28;3711;-55
2022/06/10 03:47:04;;;;;;;;;;;;;;;;;;1040432;28;3934;-56
2022/06/10 03:47:41;;;;;;;;;;;;;;;;;;1042910;28;4005;-55
2022/06/10 03:48:17;;;;;;;;;;;;;;;;;;1040767;28;3571;-53
2022/06/10 03:48:48;;;;;;;;;;;;;;;;;;1042672;28;4023;-55
2022/06/10 03:49:20;;;;;;;;;;;;;;;;;;1041641;28;1652;-55
2022/06/10 03:50:01;;;;;;;;;;;;;;;;;;1046167;28;4003;-54
2022/06/10 03:50:33;;;;;;;;;;;;;;;;;;1045786;28;1630;-54
2022/06/10 03:51:04;;;;;;;;;;;;;;;;;;1046544;28;3751;-55
2022/06/10 03:51:34;;;;;;;;;;;;;;;;;;1043465;28;4082;-55
2022/06/10 03:52:05;;;;;;;;;;;;;;;;;;1042194;28;2420;-55
2022/06/10 03:52:37;;;;;;;;;;;;;;;;;;1041048;28;3913;-55
2022/06/10 03:53:10;;;;;;;;;;;;;;;;;;1041716;28;3549;-56
2022/06/10 03:53:40;;;;;;;;;;;;;;;;;;1040472;28;4054;-56
2022/06/10 03:54:15;;;;;;;;;;;;;;;;;;1041728;28;3676;-55
2022/06/10 03:54:45;;;;;;;;;;;;;;;;;;1039228;28;4126;-55
2022/06/10 03:55:17;;;;;;;;;;;;;;;;;;1041608;28;3217;-56
2022/06/10 03:55:48;;;;;;;;;;;;;;;;;;1040692;28;4045;-54
2022/06/10 03:56:22;;;;;;;;;;;;;;;;;;1041688;28;3654;-54
2022/06/10 03:56:52;;;;;;;;;;;;;;;;;;1040127;28;4047;-55
2022/06/10 03:57:23;;;;;;;;;;;;;;;;;;1041920;28;3763;-54
2022/06/10 03:57:53;;;;;;;;;;;;;;;;;;1041623;28;3967;-56
2022/06/10 03:58:23;;;;;;;;;;;;;;;;;;1040840;28;3748;-54
2022/06/10 03:58:53;;;;;;;;;;;;;;;;;;1042350;28;4017;-54
2022/06/10 03:59:24;;;;;;;;;;;;;;;;;;1042668;28;1366;-54
2022/06/10 03:59:54;;;;;;;;;;;;;;;;;;1039961;28;3966;-55
2022/06/10 04:00:26;;;;;;;;;;;;;;;;;;1042394;28;2055;-55
2022/06/10 04:00:58;;;;;;;;;;;;;;;;;;1043753;28;4057;-54
2022/06/10 04:01:28;;;;;;;;;;;;;;;;;;1045922;28;1614;-55
2022/06/10 04:01:58;;;;;;;;;;;;;;;;;;1040268;28;4021;-53
2022/06/10 04:02:29;;;;;;;;;;;;;;;;;;1043277;28;1559;-55
2022/06/10 04:02:59;;;;;;;;;;;;;;;;;;1041144;28;3863;-55
2022/06/10 04:03:29;;;;;;;;;;;;;;;;;;1042726;28;1561;-53
2022/06/10 04:03:59;;;;;;;;;;;;;;;;;;1040915;28;4000;-54
2022/06/10 04:04:30;;;;;;;;;;;;;;;;;;1041992;28;2829;-53
2022/06/10 04:05:00;;;;;;;;;;;;;;;;;;1041709;28;4016;-55
2022/06/10 04:05:31;;;;;;;;;;;;;;;;;;1042384;28;1859;-55
2022/06/10 04:06:01;;;;;;;;;;;;;;;;;;1040001;28;3966;-55
2022/06/10 04:06:31;;;;;;;;;;;;;;;;;;1042739;28;2031;-56
2022/06/10 04:07:02;;;;;;;;;;;;;;;;;;1040587;28;3996;-54
2022/06/10 04:07:32;;;;;;;;;;;;;;;;;;1041224;28;3749;-54
2022/06/10 04:08:03;;;;;;;;;;;;;;;;;;1035255;28;3909;-56
2022/06/10 04:08:34;;;;;;;;;;;;;;;;;;1037386;28;3826;-54